Time;durP1;ratioP1;P1;durP2;ratioP2;P2;SDS_P1;SDS_P2;PMS_P1;PMS_P2;Temp;Humidity;BMP_temperature;BMP_pressure;BME280_temperature;BME280_humidity;BME280_pressure;Samples;Min_cycle;Max_cycle;Signal;HPM_P1;HPM_P2
2023/12/20 00:01:01;;;;;;;4.22;0.60;;;6.20;99.90;;;;;;5093827;28;20132;-64
2023/12/20 00:03:27;;;;;;;7.13;1.00;;;6.20;99.90;;;;;;5092974;28;20094;-64
2023/12/20 00:05:52;;;;;;;8.13;1.00;;;6.20;99.90;;;;;;5093820;28;20054;-64
2023/12/20 00:08:18;;;;;;;7.47;1.10;;;6.20;99.90;;;;;;5093563;28;20056;-65
2023/12/20 00:10:44;;;;;;;6.50;0.50;;;6.20;99.90;;;;;;5093538;28;20080;-65
2023/12/20 00:13:10;;;;;;;5.15;0.50;;;6.20;99.90;;;;;;5093521;28;20097;-64
2023/12/20 00:15:36;;;;;;;5.47;0.73;;;6.20;99.90;;;;;;5093682;28;20048;-66
2023/12/20 00:18:01;;;;;;;5.00;0.60;;;6.20;99.90;;;;;;5093354;28;20055;-64
2023/12/20 00:20:28;;;;;;;7.17;1.00;;;6.20;99.90;;;;;;5093169;28;20113;-64
2023/12/20 00:22:58;;;;;;;5.75;0.98;;;6.20;99.90;;;;;;5093547;28;20044;-65
2023/12/20 00:25:24;;;;;;;5.15;0.70;;;6.20;99.90;;;;;;5093496;28;20414;-64
2023/12/20 00:27:49;;;;;;;6.57;0.82;;;6.20;99.90;;;;;;5093482;28;20086;-62
2023/12/20 00:30:15;;;;;;;9.40;0.87;;;6.20;99.90;;;;;;5093748;28;20076;-62
2023/12/20 00:32:46;;;;;;;8.23;1.50;;;6.20;99.90;;;;;;5092437;28;20044;-66
2023/12/20 00:35:15;;;;;;;3.85;0.75;;;6.20;99.90;;;;;;5093607;28;20050;-66
2023/12/20 00:37:42;;;;;;;4.15;0.85;;;6.20;99.90;;;;;;5093435;28;20036;-64
2023/12/20 00:40:09;;;;;;;3.08;0.80;;;6.20;99.90;;;;;;5093226;28;20080;-63
2023/12/20 00:42:35;;;;;;;5.63;1.27;;;6.20;99.90;;;;;;5093461;28;20470;-64
2023/12/20 00:45:02;;;;;;;7.03;1.00;;;6.30;99.90;;;;;;5093501;28;20051;-65
2023/12/20 00:47:27;;;;;;;4.03;0.73;;;6.30;99.90;;;;;;5093481;28;20097;-66
2023/12/20 00:49:53;;;;;;;8.20;1.10;;;6.40;99.90;;;;;;5093169;28;20048;-65
2023/12/20 00:52:19;;;;;;;9.87;1.40;;;6.40;99.90;;;;;;5093153;28;20048;-64
2023/12/20 00:54:45;;;;;;;7.27;1.30;;;6.40;99.90;;;;;;5092010;28;20055;-63
2023/12/20 00:57:11;;;;;;;8.52;1.27;;;6.40;99.90;;;;;;5093187;28;20519;-63
2023/12/20 00:59:36;;;;;;;3.90;1.87;;;6.40;99.90;;;;;;5093313;28;20169;-64
2023/12/20 01:02:02;;;;;;;2.77;0.70;;;6.40;99.90;;;;;;5092972;28;20399;-65
2023/12/20 01:04:28;;;;;;;5.80;0.93;;;6.40;99.90;;;;;;5092998;28;20118;-65
2023/12/20 01:06:54;;;;;;;5.17;0.80;;;6.50;99.90;;;;;;5092278;28;20051;-66
2023/12/20 01:09:19;;;;;;;7.13;0.73;;;6.40;99.90;;;;;;5096253;28;20044;-65
2023/12/20 01:11:48;;;;;;;9.37;1.17;;;6.40;99.90;;;;;;5096827;28;20058;-67
2023/12/20 01:14:14;;;;;;;4.63;0.60;;;6.40;99.90;;;;;;5096628;28;20079;-64
2023/12/20 01:16:39;;;;;;;4.07;0.40;;;6.40;99.90;;;;;;5096753;28;20087;-64
2023/12/20 01:19:05;;;;;;;7.53;0.60;;;6.40;99.90;;;;;;5096466;28;20383;-66
2023/12/20 01:21:31;;;;;;;6.00;0.93;;;6.40;99.90;;;;;;5096783;28;20048;-65
2023/12/20 01:23:56;;;;;;;6.63;0.83;;;6.30;99.90;;;;;;5096286;28;20047;-64
2023/12/20 01:26:22;;;;;;;8.27;1.40;;;6.30;99.90;;;;;;5096736;28;20121;-66
2023/12/20 01:28:48;;;;;;;5.03;0.70;;;6.30;99.90;;;;;;5096660;28;20040;-64
2023/12/20 01:31:13;;;;;;;5.60;1.00;;;6.30;99.90;;;;;;5095395;28;20129;-65
2023/12/20 01:33:39;;;;;;;4.47;0.83;;;6.40;99.90;;;;;;5096237;28;20093;-64
2023/12/20 01:36:05;;;;;;;10.53;0.90;;;6.30;99.90;;;;;;5096198;28;20368;-63
2023/12/20 01:38:30;;;;;;;6.83;0.67;;;6.30;99.90;;;;;;5095997;28;20096;-64
2023/12/20 01:40:56;;;;;;;5.83;0.90;;;6.30;99.90;;;;;;5095138;28;20471;-63
2023/12/20 01:43:22;;;;;;;8.13;1.27;;;6.40;99.90;;;;;;5096167;28;20048;-64
2023/12/20 01:45:48;;;;;;;5.97;1.07;;;6.40;99.90;;;;;;5096142;28;20105;-63
2023/12/20 01:48:16;;;;;;;5.60;0.63;;;6.40;99.90;;;;;;5096094;28;20044;-63
2023/12/20 01:50:43;;;;;;;4.63;0.80;;;6.40;99.90;;;;;;5095999;28;20048;-65
2023/12/20 01:53:11;;;;;;;7.75;1.58;;;6.40;99.90;;;;;;5095730;28;20087;-63
2023/12/20 01:55:40;;;;;;;5.88;1.00;;;6.30;99.90;;;;;;5096602;28;20105;-64
2023/12/20 01:58:08;;;;;;;6.43;1.02;;;6.30;99.90;;;;;;5095862;28;20044;-63
2023/12/20 02:00:35;;;;;;;9.27;1.65;;;6.30;99.90;;;;;;5095707;28;20051;-65
2023/12/20 02:03:04;;;;;;;9.40;1.60;;;6.30;99.90;;;;;;5095741;28;20040;-63
2023/12/20 02:05:31;;;;;;;13.63;1.50;;;6.30;99.90;;;;;;5095594;28;20079;-61
2023/12/20 02:07:56;;;;;;;;;;;6.30;99.90;;;;;;5095775;28;20040;-62
2023/12/20 02:10:23;;;;;;;5.72;1.40;;;6.30;99.90;;;;;;5095666;28;19931;-63
2023/12/20 02:12:48;;;;;;;10.48;1.10;;;6.30;99.90;;;;;;5095634;28;20097;-63
2023/12/20 02:15:14;;;;;;;6.53;1.13;;;6.30;99.90;;;;;;5095564;28;20036;-63
2023/12/20 02:17:40;;;;;;;6.60;0.93;;;6.30;99.90;;;;;;5094406;28;20054;-63
2023/12/20 02:20:07;;;;;;;5.63;1.00;;;6.30;99.90;;;;;;5094355;28;20056;-63
2023/12/20 02:22:32;;;;;;;9.88;1.13;;;6.30;99.90;;;;;;5095104;28;20057;-63
2023/12/20 02:24:58;;;;;;;5.23;0.60;;;6.30;99.90;;;;;;5095693;28;20081;-63
2023/12/20 02:27:24;;;;;;;3.93;1.00;;;6.30;99.90;;;;;;5095623;28;20398;-63
2023/12/20 02:29:50;;;;;;;9.13;1.10;;;6.30;99.90;;;;;;5095181;28;20044;-63
2023/12/20 02:32:17;;;;;;;6.65;0.93;;;6.30;99.90;;;;;;5095106;28;20146;-63
2023/12/20 02:34:43;;;;;;;5.22;0.85;;;6.30;99.90;;;;;;5095080;28;20379;-62
2023/12/20 02:37:09;;;;;;;5.93;1.00;;;6.30;99.90;;;;;;5094920;28;20051;-63
2023/12/20 02:39:34;;;;;;;8.87;1.10;;;6.30;99.90;;;;;;5094213;28;20079;-62
2023/12/20 02:42:00;;;;;;;5.97;0.80;;;6.30;99.90;;;;;;5094071;28;20055;-63
2023/12/20 02:44:26;;;;;;;6.57;1.23;;;6.30;99.90;;;;;;5094972;28;20046;-63
2023/12/20 02:46:51;;;;;;;10.00;1.00;;;6.30;99.90;;;;;;5094955;28;20135;-63
2023/12/20 02:49:17;;;;;;;8.40;1.17;;;6.30;99.90;;;;;;5077053;28;20109;-64
2023/12/20 02:51:43;;;;;;;11.30;2.17;;;6.40;99.90;;;;;;5094617;28;20047;-62
2023/12/20 02:54:08;;;;;;;10.43;0.90;;;6.40;99.90;;;;;;5094778;28;20043;-64
2023/12/20 02:56:34;;;;;;;8.90;0.90;;;6.40;99.90;;;;;;5094729;28;20050;-63
2023/12/20 02:59:00;;;;;;;10.40;0.90;;;6.40;99.90;;;;;;5094582;28;20087;-63
2023/12/20 03:01:26;;;;;;;4.37;1.47;;;6.40;99.90;;;;;;5094686;28;20036;-63
2023/12/20 03:03:51;;;;;;;8.02;1.17;;;6.40;99.90;;;;;;5093527;28;20048;-63
2023/12/20 03:06:20;;;;;;;6.00;1.00;;;6.40;99.90;;;;;;5094475;28;20052;-63
2023/12/20 03:08:46;;;;;;;9.65;1.60;;;6.40;99.90;;;;;;5093318;28;20040;-63
2023/12/20 03:11:11;;;;;;;6.37;0.90;;;6.40;99.90;;;;;;5094426;28;20058;-63
2023/12/20 03:13:37;;;;;;;8.03;1.03;;;6.40;99.90;;;;;;5094550;28;20055;-63
2023/12/20 03:16:10;;;;;;;8.60;0.97;;;6.30;99.90;;;;;;5094417;28;20055;-63
2023/12/20 03:18:36;;;;;;;10.80;1.20;;;6.30;99.90;;;;;;5093868;28;20487;-62
2023/12/20 03:21:01;;;;;;;13.27;1.57;;;6.30;99.90;;;;;;5094026;28;20055;-63
2023/12/20 03:23:27;;;;;;;10.50;1.60;;;6.30;99.90;;;;;;5094267;28;20043;-63
2023/12/20 03:25:53;;;;;;;10.93;1.80;;;6.40;99.90;;;;;;5094394;28;20105;-63
2023/12/20 03:28:19;;;;;;;9.37;2.13;;;6.40;99.90;;;;;;5094529;28;20044;-63
2023/12/20 03:30:45;;;;;;;7.72;1.10;;;6.40;99.90;;;;;;5093673;28;20048;-63
2023/12/20 03:33:10;;;;;;;8.93;1.30;;;6.50;99.90;;;;;;5094168;28;20134;-63
2023/12/20 03:35:36;;;;;;;8.57;1.40;;;6.50;99.90;;;;;;5093845;28;20135;-63
2023/12/20 03:38:02;;;;;;;7.10;1.07;;;6.50;99.90;;;;;;5093995;28;20040;-62
2023/12/20 03:40:28;;;;;;;5.20;0.80;;;6.50;99.90;;;;;;5093036;28;20040;-63
2023/12/20 03:42:54;;;;;;;6.37;0.67;;;6.40;99.90;;;;;;5092920;28;20054;-63
2023/12/20 03:45:19;;;;;;;7.00;0.87;;;6.30;99.90;;;;;;5093881;28;20040;-63
2023/12/20 03:47:45;;;;;;;9.93;0.90;;;6.30;99.90;;;;;;5093775;28;20040;-63
2023/12/20 03:50:10;;;;;;;8.17;1.00;;;6.20;99.90;;;;;;5094481;28;20383;-62
2023/12/20 03:52:36;;;;;;;7.47;0.90;;;6.20;99.90;;;;;;5093699;28;20044;-63
2023/12/20 03:55:02;;;;;;;11.23;1.47;;;6.30;99.90;;;;;;5093913;28;20059;-63
2023/12/20 03:57:28;;;;;;;9.57;1.10;;;6.30;99.90;;;;;;5093802;28;20417;-69
2023/12/20 03:59:53;;;;;;;9.03;1.13;;;6.40;99.90;;;;;;5093815;28;20055;-62
2023/12/20 04:02:19;;;;;;;14.07;1.60;;;6.40;99.90;;;;;;5093838;28;20051;-62
2023/12/20 04:04:45;;;;;;;10.30;1.40;;;6.40;99.90;;;;;;5093585;28;20509;-62
2023/12/20 04:07:10;;;;;;;7.33;1.57;;;6.40;99.90;;;;;;5093727;28;20101;-62
2023/12/20 04:09:36;;;;;;;9.67;1.40;;;6.40;99.90;;;;;;5093771;28;20044;-62
2023/12/20 04:12:02;;;;;;;12.33;1.27;;;6.40;99.90;;;;;;5093838;28;20380;-63
2023/12/20 04:14:27;;;;;;;10.60;1.50;;;6.50;99.90;;;;;;5093447;28;20067;-64
2023/12/20 04:16:53;;;;;;;8.30;1.50;;;6.40;99.90;;;;;;5092356;28;20040;-62
2023/12/20 04:19:19;;;;;;;10.50;2.08;;;6.40;99.90;;;;;;5093503;28;20506;-63
2023/12/20 04:21:45;;;;;;;9.83;2.53;;;6.40;99.90;;;;;;5093634;28;20128;-62
2023/12/20 04:24:10;;;;;;;9.20;1.83;;;6.40;99.90;;;;;;5093356;28;20483;-63
2023/12/20 04:26:36;;;;;;;9.50;1.40;;;6.40;99.90;;;;;;5075792;28;20055;-62
2023/12/20 04:29:02;;;;;;;8.80;1.93;;;6.40;99.90;;;;;;5092770;28;20139;-62
2023/12/20 04:31:27;;;;;;;10.63;1.53;;;6.50;99.90;;;;;;5092511;28;20470;-62
2023/12/20 04:33:53;;;;;;;11.63;1.43;;;6.50;99.90;;;;;;5092061;28;20044;-63
2023/12/20 04:36:19;;;;;;;7.97;1.30;;;6.40;99.90;;;;;;5093774;28;20093;-63
2023/12/20 04:38:44;;;;;;;8.73;1.60;;;6.50;99.90;;;;;;5093329;28;20044;-63
2023/12/20 04:41:10;;;;;;;10.03;1.63;;;6.50;99.90;;;;;;5075786;28;20051;-63
2023/12/20 04:43:36;;;;;;;15.37;1.30;;;6.50;99.90;;;;;;5095616;28;20040;-62
2023/12/20 04:46:02;;;;;;;9.97;1.50;;;6.60;99.90;;;;;;5097245;28;20521;-61
2023/12/20 04:48:28;;;;;;;10.85;2.15;;;6.60;99.90;;;;;;5096978;28;20403;-61
2023/12/20 04:50:53;;;;;;;7.97;1.30;;;6.70;99.90;;;;;;5097505;28;20044;-63
2023/12/20 04:53:19;;;;;;;11.27;1.93;;;6.80;99.90;;;;;;5097424;28;20048;-63
2023/12/20 04:55:45;;;;;;;14.53;1.80;;;6.80;99.90;;;;;;5096021;28;20100;-69
2023/12/20 04:58:10;;;;;;;9.70;1.20;;;6.90;99.90;;;;;;5096790;28;20044;-62
2023/12/20 05:00:36;;;;;;;9.87;1.13;;;6.90;99.90;;;;;;5096880;28;20079;-63
2023/12/20 05:03:01;;;;;;;12.57;1.70;;;6.90;99.90;;;;;;5096776;28;20113;-62
2023/12/20 05:05:27;;;;;;;11.40;1.47;;;6.90;99.90;;;;;;5097219;28;20097;-61
2023/12/20 05:07:53;;;;;;;9.50;1.63;;;7.00;99.90;;;;;;5095696;28;20048;-63
2023/12/20 05:10:18;;;;;;;9.93;1.43;;;7.00;99.90;;;;;;5078911;28;20062;-62
2023/12/20 05:12:44;;;;;;;11.93;1.77;;;7.00;99.90;;;;;;5095900;28;20126;-63
2023/12/20 05:15:09;;;;;;;5.43;1.40;;;7.00;99.90;;;;;;5096762;28;20084;-62
2023/12/20 05:17:35;;;;;;;8.07;1.20;;;7.10;99.90;;;;;;5096519;28;20526;-63
2023/12/20 05:20:02;;;;;;;13.70;2.50;;;7.10;99.90;;;;;;5096315;28;20083;-63
2023/12/20 05:22:28;;;;;;;16.50;1.85;;;7.10;99.90;;;;;;5096565;28;20055;-65
2023/12/20 05:24:54;;;;;;;10.70;2.20;;;7.10;99.90;;;;;;5096503;28;20048;-62
2023/12/20 05:27:19;;;;;;;8.27;2.03;;;7.10;99.90;;;;;;5096414;28;20105;-62
2023/12/20 05:29:45;;;;;;;11.83;1.47;;;7.10;99.90;;;;;;5096388;28;20130;-63
2023/12/20 05:32:11;;;;;;;13.67;1.83;;;7.10;99.90;;;;;;5096165;28;20079;-63
2023/12/20 05:34:36;;;;;;;7.40;1.30;;;7.10;99.90;;;;;;5096365;28;20514;-62
2023/12/20 05:37:02;;;;;;;12.87;2.27;;;7.10;99.90;;;;;;5096251;28;20054;-63
2023/12/20 05:39:28;;;;;;;13.10;2.03;;;7.10;99.90;;;;;;5096143;28;20048;-63
2023/12/20 05:41:53;;;;;;;9.93;2.33;;;7.10;99.90;;;;;;5096121;28;20059;-62
2023/12/20 05:44:19;;;;;;;8.40;1.63;;;7.10;99.90;;;;;;5096088;28;20044;-63
2023/12/20 05:46:45;;;;;;;7.80;1.50;;;7.10;99.90;;;;;;5095956;28;20040;-62
2023/12/20 05:49:10;;;;;;;10.13;1.40;;;7.20;99.90;;;;;;5096108;28;20040;-62
2023/12/20 05:51:36;;;;;;;8.37;2.20;;;7.10;99.90;;;;;;5096103;28;20040;-62
2023/12/20 05:54:02;;;;;;;8.60;1.20;;;7.20;99.90;;;;;;5094611;28;20051;-62
2023/12/20 05:56:28;;;;;;;15.10;2.10;;;7.20;99.90;;;;;;5095996;28;20084;-64
2023/12/20 05:58:53;;;;;;;10.67;1.40;;;7.20;99.90;;;;;;5095679;28;20475;-62
2023/12/20 06:01:19;;;;;;;10.40;2.20;;;7.20;99.90;;;;;;5095730;28;20491;-64
2023/12/20 06:03:45;;;;;;;10.33;1.50;;;7.30;99.90;;;;;;5095569;28;20055;-62
2023/12/20 06:06:12;;;;;;;7.85;1.63;;;7.30;99.90;;;;;;5094865;28;20054;-62
2023/12/20 06:08:38;;;;;;;;;;;7.30;99.90;;;;;;5096527;28;20066;-62
2023/12/20 06:11:05;;;;;;;12.23;1.63;;;7.30;99.90;;;;;;5095487;28;20373;-63
2023/12/20 06:13:31;;;;;;;12.65;2.00;;;7.30;99.90;;;;;;5095649;28;20116;-62
2023/12/20 06:15:57;;;;;;;11.55;1.48;;;7.30;99.90;;;;;;5095354;28;20495;-63
2023/12/20 06:18:23;;;;;;;13.03;1.47;;;7.30;99.90;;;;;;5095401;28;20697;-62
2023/12/20 06:20:49;;;;;;;9.40;1.60;;;7.30;99.90;;;;;;5095486;28;20052;-62
2023/12/20 06:23:14;;;;;;;15.20;1.90;;;7.30;99.90;;;;;;5095632;28;20051;-62
2023/12/20 06:25:40;;;;;;;14.83;1.57;;;7.30;99.90;;;;;;5095376;28;20040;-63
2023/12/20 06:28:06;;;;;;;6.80;1.47;;;7.30;99.90;;;;;;5095134;28;20048;-62
2023/12/20 06:30:33;;;;;;;7.88;1.63;;;7.30;99.90;;;;;;5095147;28;20056;-65
2023/12/20 06:32:58;;;;;;;9.43;1.73;;;7.30;99.90;;;;;;5095226;28;20483;-64
2023/12/20 06:35:24;;;;;;;17.40;2.13;;;7.40;99.90;;;;;;5095166;28;20047;-62
2023/12/20 06:37:50;;;;;;;13.03;1.90;;;7.40;99.90;;;;;;5094782;28;20044;-63
2023/12/20 06:40:16;;;;;;;10.43;1.73;;;7.40;99.90;;;;;;5095138;28;20181;-64
2023/12/20 06:42:42;;;;;;;13.13;2.30;;;7.40;99.90;;;;;;5094997;28;20523;-63
2023/12/20 06:45:08;;;;;;;12.80;1.80;;;7.40;99.90;;;;;;5094727;28;20044;-63
2023/12/20 06:47:33;;;;;;;11.90;1.70;;;7.40;99.90;;;;;;5094917;28;20048;-62
2023/12/20 06:50:00;;;;;;;12.70;1.70;;;7.50;99.90;;;;;;5095120;28;20071;-63
2023/12/20 06:52:26;;;;;;;8.73;1.40;;;7.40;99.90;;;;;;5094889;28;20048;-63
2023/12/20 06:54:51;;;;;;;13.53;1.80;;;7.40;99.90;;;;;;5094869;28;20578;-63
2023/12/20 06:57:17;;;;;;;12.20;1.53;;;7.50;99.90;;;;;;5093667;28;20368;-62
2023/12/20 06:59:44;;;;;;;8.60;1.63;;;7.50;99.90;;;;;;5094569;28;20047;-62
2023/12/20 07:02:10;;;;;;;11.25;1.70;;;7.40;99.90;;;;;;5094618;28;20054;-63
2023/12/20 07:04:42;;;;;;;14.33;1.30;;;7.40;99.90;;;;;;5093598;28;20044;-64
2023/12/20 07:07:08;;;;;;;8.82;1.50;;;7.50;99.90;;;;;;5094359;28;20051;-63
2023/12/20 07:09:33;;;;;;;9.00;1.80;;;7.50;99.90;;;;;;5094764;28;20403;-63
2023/12/20 07:11:59;;;;;;;13.63;1.83;;;7.50;99.90;;;;;;5094510;28;20109;-65
2023/12/20 07:14:25;;;;;;;10.32;2.08;;;7.50;99.90;;;;;;5094185;28;20623;-63
2023/12/20 07:16:51;;;;;;;11.40;1.80;;;7.50;99.90;;;;;;5093419;28;20066;-62
2023/12/20 07:19:17;;;;;;;14.17;2.37;;;7.60;99.90;;;;;;5094057;28;20055;-62
2023/12/20 07:21:43;;;;;;;16.87;1.87;;;7.60;99.90;;;;;;5094502;28;20387;-62
2023/12/20 07:24:08;;;;;;;15.25;2.78;;;7.50;99.90;;;;;;5094230;28;20040;-62
2023/12/20 07:26:35;;;;;;;10.57;1.60;;;7.60;99.90;;;;;;5094196;28;20051;-61
2023/12/20 07:29:01;;;;;;;13.90;1.85;;;7.60;99.90;;;;;;5094062;28;20040;-62
2023/12/20 07:31:26;;;;;;;14.97;2.10;;;7.60;99.90;;;;;;5093145;28;20494;-61
2023/12/20 07:33:52;;;;;;;8.13;1.33;;;7.60;99.90;;;;;;5093143;28;20097;-61
2023/12/20 07:36:19;;;;;;;9.67;1.60;;;7.60;99.90;;;;;;5094047;28;20044;-61
2023/12/20 07:38:45;;;;;;;11.52;2.05;;;7.70;99.90;;;;;;5094181;28;20129;-63
2023/12/20 07:41:10;;;;;;;11.40;1.63;;;7.70;99.90;;;;;;5093815;28;20075;-61
2023/12/20 07:43:36;;;;;;;13.10;1.80;;;7.70;99.90;;;;;;5094039;28;20437;-61
2023/12/20 07:46:06;;;;;;;6.97;1.37;;;7.70;99.90;;;;;;5094043;28;20445;-62
2023/12/20 07:48:33;;;;;;;11.05;1.60;;;7.70;99.90;;;;;;5093935;28;20040;-61
2023/12/20 07:50:58;;;;;;;14.60;2.15;;;7.70;99.90;;;;;;5094145;28;20048;-62
2023/12/20 07:53:24;;;;;;;11.03;1.60;;;7.80;99.90;;;;;;5093780;28;20394;-63
2023/12/20 07:55:52;;;;;;;8.87;1.70;;;7.70;99.90;;;;;;5093809;28;20079;-62
2023/12/20 07:58:18;;;;;;;10.88;2.28;;;7.70;99.90;;;;;;5092428;28;20048;-62
2023/12/20 08:00:43;;;;;;;10.17;1.73;;;7.70;99.90;;;;;;5093997;28;20123;-62
2023/12/20 08:03:09;;;;;;;13.77;1.73;;;7.70;99.90;;;;;;5093808;28;20044;-61
2023/12/20 08:05:35;;;;;;;9.43;2.07;;;7.70;99.90;;;;;;5093731;28;20629;-62
2023/12/20 08:08:01;;;;;;;15.60;1.77;;;7.80;99.90;;;;;;5093758;28;20036;-62
2023/12/20 08:10:29;;;;;;;9.13;1.67;;;7.80;99.90;;;;;;5093656;28;20109;-61
2023/12/20 08:12:55;;;;;;;10.30;1.80;;;7.80;99.90;;;;;;5093572;28;20047;-61
2023/12/20 08:15:20;;;;;;;12.73;2.03;;;7.80;99.90;;;;;;5093490;28;20391;-61
2023/12/20 08:17:46;;;;;;;12.37;2.30;;;7.80;99.90;;;;;;5096552;28;20101;-61
2023/12/20 08:20:12;;;;;;;11.30;1.70;;;7.80;99.90;;;;;;5097802;28;20466;-61
2023/12/20 08:22:38;;;;;;;7.93;1.60;;;7.90;99.90;;;;;;5097766;28;20088;-61
2023/12/20 08:25:04;;;;;;;18.10;1.87;;;7.90;99.90;;;;;;5097605;28;20123;-62
2023/12/20 08:27:31;;;;;;;9.93;1.92;;;7.90;99.90;;;;;;5130627;27;20097;-61
2023/12/20 08:29:57;;;;;;;8.38;1.20;;;7.90;99.90;;;;;;5097702;28;20048;-62
2023/12/20 08:32:26;;;;;;;4.77;0.77;;;7.90;99.90;;;;;;5097580;28;20127;-60
2023/12/20 08:34:52;;;;;;;2.38;0.38;;;8.00;99.90;;;;;;5097528;28;20123;-71
2023/12/20 08:37:17;;;;;;;2.00;0.37;;;7.50;99.90;;;;;;5097346;28;20079;-70
2023/12/20 08:39:43;;;;;;;2.97;0.40;;;7.10;99.90;;;;;;5096335;28;20089;-70
2023/12/20 08:42:09;;;;;;;1.98;0.20;;;6.60;99.90;;;;;;5097231;28;20046;-65
2023/12/20 08:44:35;;;;;;;1.80;0.23;;;6.40;99.90;;;;;;5097354;28;20036;-69
2023/12/20 08:47:01;;;;;;;1.73;0.30;;;6.20;99.90;;;;;;5097741;28;20706;-71
2023/12/20 08:49:27;;;;;;;2.53;0.30;;;6.00;99.90;;;;;;5096314;28;20134;-71
2023/12/20 08:51:53;;;;;;;7.28;1.17;;;5.90;99.90;;;;;;5096983;28;20511;-68
2023/12/20 08:54:19;;;;;;;5.53;0.43;;;5.90;99.90;;;;;;5096885;28;20048;-64
2023/12/20 08:56:46;;;;;;;1.97;0.40;;;5.90;99.90;;;;;;5097046;28;20040;-62
2023/12/20 08:59:12;;;;;;;2.17;0.40;;;5.90;99.90;;;;;;5097085;28;20044;-67
2023/12/20 09:01:38;;;;;;;4.93;0.47;;;5.90;99.90;;;;;;5097132;28;20044;-66
2023/12/20 09:04:04;;;;;;;4.00;0.83;;;5.90;99.90;;;;;;5097030;28;20048;-69
2023/12/20 09:06:29;;;;;;;4.57;0.60;;;6.00;99.90;;;;;;5096040;28;20054;-68
2023/12/20 09:08:55;;;;;;;3.37;0.53;;;6.00;99.90;;;;;;5096827;28;20044;-69
2023/12/20 09:11:20;;;;;;;2.70;0.40;;;6.10;99.90;;;;;;5095431;28;20082;-61
2023/12/20 09:13:46;;;;;;;2.47;0.43;;;6.10;99.90;;;;;;5097100;28;20050;-61
2023/12/20 09:16:13;;;;;;;5.93;0.40;;;6.10;99.90;;;;;;5096747;28;20043;-64
2023/12/20 09:18:39;;;;;;;;;;;6.00;99.90;;;;;;5096914;28;20044;-60
2023/12/20 09:21:04;;;;;;;2.30;0.68;;;6.00;99.90;;;;;;5096290;28;19920;-60
2023/12/20 09:23:30;;;;;;;2.97;0.33;;;6.00;99.90;;;;;;5096521;28;20108;-60
2023/12/20 09:25:56;;;;;;;4.33;0.67;;;6.00;99.90;;;;;;5096484;28;20097;-60
2023/12/20 09:28:21;;;;;;;3.30;0.70;;;6.00;99.90;;;;;;5095850;28;20087;-59
2023/12/20 09:30:47;;;;;;;5.53;1.30;;;6.00;99.90;;;;;;5096657;28;20083;-59
2023/12/20 09:33:14;;;;;;;5.93;0.80;;;6.00;99.90;;;;;;5095290;28;20469;-60
2023/12/20 09:35:39;;;;;;;2.67;0.50;;;6.10;99.90;;;;;;5096617;28;20109;-59
2023/12/20 09:38:05;;;;;;;5.13;0.60;;;6.10;99.90;;;;;;5096179;28;20404;-59
2023/12/20 09:40:33;;;;;;;6.23;0.90;;;6.10;99.90;;;;;;5096013;28;20052;-60
2023/12/20 09:43:10;;;;;;;4.75;0.50;;;6.10;99.90;;;;;;5096207;28;20087;-59
2023/12/20 09:45:36;;;;;;;6.13;1.00;;;6.10;99.90;;;;;;5096166;28;20478;-61
2023/12/20 09:48:04;;;;;;;4.43;1.30;;;6.10;99.90;;;;;;5096053;28;20055;-59
2023/12/20 09:50:32;;;;;;;4.38;0.55;;;6.20;99.90;;;;;;5096136;28;20052;-59
2023/12/20 09:52:59;;;;;;;3.45;0.40;;;6.20;99.90;;;;;;5095892;28;20070;-59
2023/12/20 09:55:25;;;;;;;4.90;0.52;;;6.30;99.90;;;;;;5096047;28;20126;-59
2023/12/20 09:57:51;;;;;;;3.40;0.43;;;6.30;99.90;;;;;;5096085;28;20201;-59
2023/12/20 10:00:19;;;;;;;3.80;0.40;;;6.20;99.90;;;;;;5095976;28;20177;-59
2023/12/20 10:02:56;;;;;;;2.08;0.43;;;6.30;99.90;;;;;;5095850;28;20093;-59
2023/12/20 10:05:30;;;;;;;3.78;0.50;;;6.30;99.90;;;;;;5095616;28;20051;-59
2023/12/20 10:07:56;;;;;;;3.25;0.50;;;6.30;99.90;;;;;;5094621;28;20051;-59
2023/12/20 10:10:22;;;;;;;5.10;0.40;;;6.30;99.90;;;;;;5095796;28;20052;-59
2023/12/20 10:13:05;;;;;;;2.83;0.45;;;6.30;99.90;;;;;;5095719;28;20040;-58
2023/12/20 10:15:32;;;;;;;4.30;0.95;;;6.40;99.90;;;;;;5095641;28;20084;-59
2023/12/20 10:17:58;;;;;;;2.83;0.32;;;6.50;99.90;;;;;;5095232;28;20044;-59
2023/12/20 10:20:24;;;;;;;4.67;0.83;;;6.50;99.90;;;;;;5095230;28;20058;-58
2023/12/20 10:22:53;;;;;;;1.97;0.40;;;6.60;99.90;;;;;;5095443;28;20329;-58
2023/12/20 10:25:20;;;;;;;5.72;0.60;;;6.60;99.90;;;;;;5095362;28;20087;-58
2023/12/20 10:27:46;;;;;;;1.70;0.40;;;6.70;99.90;;;;;;5095217;28;20044;-58
2023/12/20 10:30:14;;;;;;;7.53;0.60;;;6.80;99.90;;;;;;5095257;28;20135;-59
2023/12/20 10:32:40;;;;;;;7.38;0.70;;;6.80;99.90;;;;;;5095039;28;20048;-59
2023/12/20 10:35:07;;;;;;;8.38;1.27;;;6.90;99.90;;;;;;5094050;28;20048;-58
2023/12/20 10:37:37;;;;;;;2.55;0.57;;;7.00;99.90;;;;;;5094328;28;20465;-58
2023/12/20 10:40:05;;;;;;;3.63;0.63;;;7.10;99.90;;;;;;5094170;28;20101;-59
2023/12/20 10:42:33;;;;;;;4.63;0.55;;;7.10;99.90;;;;;;5095077;28;20447;-58
2023/12/20 10:45:00;;;;;;;3.83;0.45;;;7.20;99.90;;;;;;5094823;28;20048;-59
2023/12/20 10:47:26;;;;;;;;;;;7.20;99.90;;;;;;5094479;28;20510;-60
2023/12/20 10:49:53;;;;;;;9.05;1.08;;;7.20;99.90;;;;;;5094883;28;19923;-58
2023/12/20 10:52:21;;;;;;;8.63;0.80;;;7.20;99.90;;;;;;5094873;28;20044;-59
2023/12/20 10:54:47;;;;;;;10.10;0.90;;;7.20;99.90;;;;;;5094742;28;20052;-60
2023/12/20 10:57:13;;;;;;;4.83;0.90;;;7.20;99.90;;;;;;5094743;28;20051;-59
2023/12/20 10:59:40;;;;;;;5.15;0.70;;;7.20;99.90;;;;;;5094512;28;20510;-58
2023/12/20 11:02:05;;;;;;;;;;;7.20;99.90;;;;;;5095489;28;20052;-59
2023/12/20 11:04:44;;;;;;;6.88;1.13;;;7.30;99.90;;;;;;5093732;28;19947;-58
2023/12/20 11:07:33;;;;;;;3.45;0.85;;;7.30;99.90;;;;;;5094659;28;20085;-58
2023/12/20 11:10:15;;;;;;;5.40;0.73;;;7.30;99.90;;;;;;5094526;28;20079;-58
2023/12/20 11:12:53;;;;;;;8.10;1.00;;;7.40;99.90;;;;;;5095204;28;20047;-58
2023/12/20 11:15:20;;;;;;;8.75;1.10;;;7.40;99.90;;;;;;5094302;28;20396;-58
2023/12/20 11:17:48;;;;;;;8.52;1.10;;;7.30;99.90;;;;;;5094207;28;20043;-58
2023/12/20 11:20:14;;;;;;;5.72;1.20;;;7.40;99.90;;;;;;5093182;28;20063;-58
2023/12/20 11:22:51;;;;;;;8.57;0.80;;;7.40;99.90;;;;;;5094215;28;20056;-58
2023/12/20 11:25:17;;;;;;;8.93;0.70;;;7.40;99.90;;;;;;5094379;28;20043;-58
2023/12/20 11:27:43;;;;;;;10.43;2.08;;;7.30;99.90;;;;;;5094340;28;20044;-58
2023/12/20 11:30:09;;;;;;;5.60;1.00;;;7.30;99.90;;;;;;5093378;28;20368;-58
2023/12/20 11:32:36;;;;;;;13.05;1.02;;;7.30;99.90;;;;;;5094085;28;20044;-58
2023/12/20 11:35:19;;;;;;;10.80;1.20;;;7.30;99.90;;;;;;5093045;28;20056;-58
2023/12/20 11:37:47;;;;;;;5.50;0.93;;;7.30;99.90;;;;;;5094168;28;20040;-58
2023/12/20 11:40:15;;;;;;;7.45;1.00;;;7.30;99.90;;;;;;5094137;28;20052;-58
2023/12/20 11:42:43;;;;;;;9.98;1.33;;;7.30;99.90;;;;;;5094088;28;20044;-58
2023/12/20 11:45:17;;;;;;;5.85;1.20;;;7.30;99.90;;;;;;5093923;28;20091;-58
2023/12/20 11:47:45;;;;;;;7.80;1.20;;;7.30;99.90;;;;;;5092801;28;20055;-58
2023/12/20 11:50:11;;;;;;;8.38;1.10;;;7.40;99.90;;;;;;5093117;28;20079;-58
2023/12/20 11:52:37;;;;;;;4.17;0.70;;;7.40;99.90;;;;;;5093550;28;20044;-58
2023/12/20 11:55:03;;;;;;;9.70;1.40;;;7.40;99.90;;;;;;5093790;28;20452;-58
2023/12/20 11:57:30;;;;;;;10.10;1.08;;;7.40;99.90;;;;;;5093859;28;20339;-58
2023/12/20 11:59:56;;;;;;;9.98;1.17;;;7.40;99.90;;;;;;5093886;28;20044;-58
2023/12/20 12:02:21;;;;;;;5.83;0.93;;;7.40;99.90;;;;;;5093503;28;20444;-58
2023/12/20 12:04:49;;;;;;;10.83;1.50;;;7.40;99.90;;;;;;5093207;28;20079;-62
2023/12/20 12:07:14;;;;;;;12.13;0.98;;;7.40;99.90;;;;;;5093706;28;20040;-62
2023/12/20 12:09:40;;;;;;;8.90;1.00;;;7.40;99.90;;;;;;5093697;28;20115;-62
2023/12/20 12:12:06;;;;;;;6.43;0.90;;;7.40;99.90;;;;;;5093695;28;20048;-61
2023/12/20 12:14:32;;;;;;;9.30;1.33;;;7.40;99.90;;;;;;5093609;28;20048;-61
2023/12/20 12:16:58;;;;;;;8.43;1.13;;;7.40;99.90;;;;;;5093691;28;20054;-61
2023/12/20 12:19:24;;;;;;;7.70;1.20;;;7.40;99.90;;;;;;5093502;28;20151;-62
2023/12/20 12:21:51;;;;;;;8.05;1.20;;;7.40;99.90;;;;;;5093670;28;20044;-62
2023/12/20 12:24:21;;;;;;;3.60;0.82;;;7.40;99.90;;;;;;5093576;28;20129;-62
2023/12/20 12:26:51;;;;;;;6.63;0.93;;;7.40;99.90;;;;;;5093548;28;20057;-61
2023/12/20 12:29:17;;;;;;;9.40;1.27;;;7.30;99.90;;;;;;5093438;28;20109;-62
2023/12/20 12:31:42;;;;;;;5.93;1.30;;;7.30;99.90;;;;;;5093594;28;20048;-61
2023/12/20 12:34:09;;;;;;;7.90;1.33;;;7.30;99.90;;;;;;5092605;28;20369;-62
2023/12/20 12:36:34;;;;;;;8.07;0.82;;;7.30;99.90;;;;;;5093511;28;20044;-61
2023/12/20 12:39:04;;;;;;;7.47;0.90;;;7.30;99.90;;;;;;5093443;28;20090;-62
2023/12/20 12:41:30;;;;;;;8.10;1.10;;;7.30;99.90;;;;;;5093358;28;20055;-62
2023/12/20 12:43:56;;;;;;;5.73;0.87;;;7.30;99.90;;;;;;5093274;28;20048;-61
2023/12/20 12:46:21;;;;;;;7.93;1.10;;;7.30;99.90;;;;;;5093438;28;20055;-61
2023/12/20 12:48:47;;;;;;;6.23;0.80;;;7.30;99.90;;;;;;5093614;28;20085;-62
2023/12/20 12:51:13;;;;;;;5.43;0.57;;;7.40;99.90;;;;;;5093280;28;20048;-62